createdAt,value
2018-12-17T00:02:57.118Z,11.10
2018-12-17T00:07:51.316Z,11.60
2018-12-17T00:12:45.239Z,10.60
2018-12-17T00:17:39.090Z,10.93
2018-12-17T00:22:32.969Z,10.63
2018-12-17T00:27:26.900Z,10.10
2018-12-17T00:32:20.281Z,9.57
2018-12-17T00:37:14.648Z,10.03
2018-12-17T00:42:08.538Z,9.77
2018-12-17T00:47:02.482Z,9.67
2018-12-17T00:51:55.962Z,8.90
2018-12-17T00:56:49.315Z,9.83
2018-12-17T01:01:42.695Z,8.97
2018-12-17T01:06:36.079Z,9.30
2018-12-17T01:11:29.858Z,9.27
2018-12-17T01:16:23.230Z,8.47
2018-12-17T01:21:17.863Z,7.77
2018-12-17T01:26:11.259Z,9.17
2018-12-17T01:31:04.659Z,8.90
2018-12-17T01:35:58.119Z,8.40
2018-12-17T01:40:51.559Z,8.73
2018-12-17T01:45:44.875Z,9.07
2018-12-17T01:50:38.919Z,10.00
2018-12-17T01:55:32.302Z,9.53
2018-12-17T02:00:26.713Z,10.13
2018-12-17T02:05:20.126Z,9.80
2018-12-17T02:10:14.482Z,9.37
2018-12-17T02:15:07.873Z,9.30
2018-12-17T02:20:01.241Z,9.87
2018-12-17T02:24:55.136Z,9.07
2018-12-17T02:29:49.027Z,9.93
2018-12-17T02:34:42.907Z,8.80
2018-12-17T02:39:36.803Z,9.03
2018-12-17T02:44:30.183Z,9.10
2018-12-17T02:49:23.559Z,8.97
2018-12-17T02:54:17.517Z,8.80
2018-12-17T02:59:10.886Z,9.07
2018-12-17T03:04:04.272Z,9.00
2018-12-17T03:08:58.178Z,9.43
2018-12-17T03:13:51.569Z,8.57
2018-12-17T03:18:45.940Z,8.50
2018-12-17T03:23:39.316Z,9.20
2018-12-17T03:28:33.692Z,8.70
2018-12-17T03:33:27.080Z,9.13
2018-12-17T03:38:21.600Z,9.03
2018-12-17T03:43:14.996Z,8.77
2018-12-17T03:48:09.244Z,8.00
2018-12-17T03:53:02.643Z,8.87
2018-12-17T03:57:57.017Z,9.43
2018-12-17T04:02:50.392Z,9.33
2018-12-17T04:07:43.823Z,8.90
2018-12-17T04:12:37.216Z,9.90
2018-12-17T04:17:31.734Z,8.80
2018-12-17T04:22:25.133Z,8.53
2018-12-17T04:27:19.352Z,8.53
2018-12-17T04:32:12.709Z,8.30
2018-12-17T04:37:07.153Z,7.97
2018-12-17T04:42:01.041Z,7.77
2018-12-17T04:46:54.972Z,8.83
2018-12-17T04:51:48.794Z,8.03
2018-12-17T04:56:42.191Z,7.70
2018-12-17T05:01:35.589Z,7.83
2018-12-17T05:06:29.793Z,7.47
2018-12-17T05:11:23.242Z,7.93
2018-12-17T05:16:16.596Z,6.27
2018-12-17T05:21:10.104Z,7.40
2018-12-17T05:26:03.491Z,7.27
2018-12-17T05:30:57.890Z,6.80
2018-12-17T05:35:51.293Z,6.97
2018-12-17T05:40:45.732Z,6.17
2018-12-17T05:45:39.169Z,6.83
2018-12-17T05:50:32.512Z,6.70
2018-12-17T05:55:26.309Z,5.90
2018-12-17T06:00:20.232Z,5.83
2018-12-17T06:05:14.094Z,5.80
2018-12-17T06:10:07.490Z,5.93
2018-12-17T06:15:00.873Z,5.60
2018-12-17T06:19:54.775Z,5.03
2018-12-17T06:24:48.151Z,5.80
2018-12-17T06:29:41.516Z,5.60
2018-12-17T06:34:35.411Z,5.87
2018-12-17T06:39:29.288Z,5.20
2018-12-17T06:44:22.667Z,4.40
2018-12-17T06:49:17.145Z,4.47
2018-12-17T06:54:10.449Z,4.07
2018-12-17T06:59:04.862Z,4.63
2018-12-17T07:03:58.251Z,4.43
2018-12-17T07:08:52.638Z,3.77
2018-12-17T07:13:46.514Z,4.03
2018-12-17T07:18:40.424Z,3.80
2018-12-17T07:23:35.036Z,3.47
2018-12-17T07:28:29.210Z,3.10
2018-12-17T07:33:22.629Z,3.33
2018-12-17T07:38:17.054Z,2.70
2018-12-17T07:43:10.458Z,2.70
2018-12-17T07:48:03.926Z,3.03
2018-12-17T07:52:57.302Z,2.97
2018-12-17T07:57:51.571Z,2.73
2018-12-17T08:02:45.458Z,2.67
2018-12-17T08:07:39.312Z,2.70
2018-12-17T08:12:33.220Z,2.60
2018-12-17T08:17:27.131Z,2.70
2018-12-17T08:22:20.501Z,2.50
2018-12-17T08:27:14.921Z,2.40
2018-12-17T08:32:08.870Z,2.10
2018-12-17T08:37:02.671Z,2.50
2018-12-17T08:41:56.568Z,2.50
2018-12-17T08:46:49.972Z,2.40
2018-12-17T08:51:43.360Z,2.30
2018-12-17T08:56:36.759Z,2.20
2018-12-17T09:01:31.172Z,2.20
2018-12-17T09:06:24.751Z,2.00
2018-12-17T09:11:18.905Z,2.00
2018-12-17T09:16:12.273Z,2.27
2018-12-17T09:21:06.673Z,1.97
2018-12-17T09:26:00.062Z,2.17
2018-12-17T09:30:54.472Z,2.30
2018-12-17T09:35:48.348Z,2.37
2018-12-17T09:40:42.259Z,2.03
2018-12-17T09:45:35.651Z,2.13
2018-12-17T09:50:29.011Z,2.03
2018-12-17T09:55:22.395Z,2.10
2018-12-17T10:00:16.783Z,2.10
2018-12-17T10:05:10.699Z,2.20
2018-12-17T10:10:04.759Z,2.40
2018-12-17T10:14:58.146Z,2.57
2018-12-17T10:19:51.540Z,1.80
2018-12-17T10:24:45.236Z,2.10
2018-12-17T10:29:39.093Z,1.70
2018-12-17T10:34:33.001Z,1.60
2018-12-17T10:39:27.005Z,1.70
2018-12-17T10:44:20.396Z,1.53
2018-12-17T10:49:16.052Z,2.27
2018-12-17T10:54:09.579Z,2.30
2018-12-17T10:59:03.473Z,1.93
2018-12-17T11:04:16.643Z,1.83
2018-12-17T11:09:10.694Z,1.97
2018-12-17T11:14:04.061Z,1.70
2018-12-17T11:18:58.528Z,1.97
2018-12-17T11:23:52.384Z,2.00
2018-12-17T11:28:46.283Z,1.93
2018-12-17T11:33:39.748Z,1.70
2018-12-17T11:38:34.243Z,1.80
2018-12-17T11:43:27.963Z,1.47
2018-12-17T11:48:21.835Z,1.53
2018-12-17T11:53:15.275Z,1.70
2018-12-17T11:58:10.340Z,1.50
2018-12-17T12:03:04.677Z,1.80
2018-12-17T12:07:58.412Z,2.07
2018-12-17T12:12:52.345Z,1.70
2018-12-17T12:17:46.269Z,1.60
2018-12-17T12:22:39.674Z,1.40
2018-12-17T12:27:34.194Z,1.10
2018-12-17T12:32:28.044Z,1.20
2018-12-17T12:37:21.762Z,1.73
2018-12-17T12:42:15.734Z,1.53
2018-12-17T12:47:10.109Z,1.57
2018-12-17T12:52:04.491Z,1.63
2018-12-17T12:56:57.926Z,1.47
2018-12-17T13:01:52.277Z,1.30
2018-12-17T13:06:45.648Z,1.33
2018-12-17T13:11:40.092Z,1.50
2018-12-17T13:16:33.512Z,1.27
2018-12-17T13:21:28.739Z,1.00
2018-12-17T13:26:22.801Z,1.43
2018-12-17T13:31:16.654Z,1.37
2018-12-17T13:36:10.501Z,1.40
2018-12-17T13:41:05.002Z,1.50
2018-12-17T13:45:58.391Z,1.00
2018-12-17T13:50:52.405Z,1.10
2018-12-17T13:55:45.775Z,1.30
2018-12-17T14:00:39.976Z,1.23
2018-12-17T14:05:33.378Z,1.40
2018-12-17T14:10:45.519Z,1.10
2018-12-17T14:15:50.988Z,1.17
2018-12-17T14:21:03.038Z,1.13
2018-12-17T14:25:56.705Z,1.40
2018-12-17T14:30:50.423Z,1.40
2018-12-17T14:36:01.734Z,1.30
2018-12-17T14:40:56.642Z,1.40
2018-12-17T14:45:50.044Z,1.47
2018-12-17T14:50:44.421Z,1.03
2018-12-17T14:55:37.848Z,1.20
2018-12-17T15:00:32.523Z,1.07
2018-12-17T15:05:26.111Z,0.87
2018-12-17T15:10:19.532Z,1.07
2018-12-17T15:15:13.900Z,1.50
2018-12-17T15:20:08.023Z,0.90
2018-12-17T15:25:01.436Z,1.20
2018-12-17T15:29:55.535Z,1.37
2018-12-17T15:34:48.934Z,1.30
2018-12-17T15:39:43.361Z,1.90
2018-12-17T15:44:37.259Z,1.43
2018-12-17T15:49:31.136Z,1.30
2018-12-17T15:54:24.545Z,1.30
2018-12-17T15:59:18.903Z,1.20
2018-12-17T16:04:12.799Z,1.23
2018-12-17T16:09:07.485Z,1.30
2018-12-17T16:14:00.906Z,1.27
2018-12-17T16:18:54.457Z,1.10
2018-12-17T16:23:47.872Z,1.13
2018-12-17T16:28:42.257Z,1.40
2018-12-17T16:33:36.162Z,1.00
2018-12-17T16:38:30.189Z,1.17
2018-12-17T16:43:23.966Z,1.30
2018-12-17T16:48:17.395Z,1.00
2018-12-17T16:53:11.708Z,1.03
2018-12-17T16:58:05.093Z,0.90
2018-12-17T17:02:58.494Z,1.10
2018-12-17T17:07:51.867Z,1.10
2018-12-17T17:12:45.260Z,1.10
2018-12-17T17:17:39.367Z,1.20
2018-12-17T17:22:33.004Z,1.10
2018-12-17T17:27:26.902Z,1.13
2018-12-17T17:32:20.262Z,1.83
2018-12-17T17:37:14.663Z,1.43
2018-12-17T17:42:08.084Z,1.07
2018-12-17T17:47:01.461Z,1.40
2018-12-17T17:51:55.326Z,1.13
2018-12-17T17:56:48.701Z,1.20
2018-12-17T18:01:43.262Z,1.10
2018-12-17T18:06:36.512Z,0.93
2018-12-17T18:11:29.978Z,1.40
2018-12-17T18:16:23.360Z,1.40
2018-12-17T18:21:20.415Z,1.17
2018-12-17T18:26:13.875Z,1.17
2018-12-17T18:31:07.463Z,1.47
2018-12-17T18:36:00.860Z,1.27
2018-12-17T18:40:54.528Z,1.10
2018-12-17T18:45:47.893Z,0.90
2018-12-17T18:50:42.036Z,1.10
2018-12-17T18:55:35.448Z,1.10
2018-12-17T19:00:30.055Z,1.00
2018-12-17T19:05:23.697Z,1.20
2018-12-17T19:10:17.595Z,1.30
2018-12-17T19:15:11.009Z,1.30
2018-12-17T19:20:06.302Z,1.57
2018-12-17T19:24:59.726Z,1.63
2018-12-17T19:29:53.120Z,1.40
2018-12-17T19:34:46.522Z,1.10
2018-12-17T19:39:39.946Z,1.20
2018-12-17T19:44:33.327Z,1.50
2018-12-17T19:49:26.867Z,2.17
2018-12-17T19:54:20.558Z,1.40
2018-12-17T19:59:14.469Z,1.20
2018-12-17T20:04:08.326Z,1.40
2018-12-17T20:09:02.233Z,1.60
2018-12-17T20:13:55.630Z,1.30
2018-12-17T20:18:50.042Z,2.00
2018-12-17T20:23:43.445Z,1.47
2018-12-17T20:28:37.794Z,1.30
2018-12-17T20:33:31.252Z,1.53
2018-12-17T20:38:25.594Z,1.20
2018-12-17T20:43:18.986Z,1.90
2018-12-17T20:48:13.364Z,1.60
2018-12-17T20:53:06.852Z,1.50
2018-12-17T20:58:01.174Z,1.33
2018-12-17T21:03:00.058Z,1.63
2018-12-17T21:07:48.939Z,1.30
2018-12-17T21:12:42.808Z,1.50
2018-12-17T21:17:36.734Z,1.33
2018-12-17T21:22:30.131Z,1.40
2018-12-17T21:27:24.468Z,1.23
2018-12-17T21:32:17.850Z,1.30
2018-12-17T21:37:12.265Z,1.47
2018-12-17T21:42:05.650Z,1.27
2018-12-17T21:46:59.011Z,1.47
2018-12-17T21:51:52.412Z,1.70
2018-12-17T21:56:45.965Z,1.90
2018-12-17T22:01:39.680Z,1.20
2018-12-17T22:06:33.114Z,1.40
2018-12-17T22:11:26.491Z,1.47
2018-12-17T22:16:19.864Z,1.30
2018-12-17T22:21:13.249Z,1.53
2018-12-17T22:26:06.608Z,1.70
2018-12-17T22:31:00.007Z,1.60
2018-12-17T22:35:53.366Z,1.47
2018-12-17T22:40:47.711Z,1.70
2018-12-17T22:45:41.257Z,1.60
2018-12-17T22:50:34.577Z,1.80
2018-12-17T22:55:27.945Z,1.63
2018-12-17T23:00:22.269Z,2.02
2018-12-17T23:05:15.848Z,1.90
2018-12-17T23:10:36.002Z,2.07
2018-12-17T23:15:47.318Z,1.70
2018-12-17T23:20:41.175Z,1.87
2018-12-17T23:25:34.584Z,1.50
2018-12-17T23:30:28.612Z,2.10
2018-12-17T23:35:22.019Z,1.60
2018-12-17T23:40:16.378Z,1.47
2018-12-17T23:45:09.750Z,1.50
2018-12-17T23:50:04.918Z,1.63
2018-12-17T23:54:58.292Z,1.50
2018-12-17T23:59:51.950Z,1.73
